Long Lake, Wisconsin
Current Conditions -  °F | °C
As of 7:54 PM on Monday 22 Dec 2014 (Local Time) from KIMT Reporting Station
Light Snow Light Snow  
Wind Chill: 25°   Ceiling: 800
Heat Index: 32°   Visibility: 1.7mi
Dew Point: 30°   Wind: 8mph
Humidity: 92%   Direction: 100°E
Pressure: 29.8"   Gusts: NA
Location:  45.84°N, 88.67°W
Report Text: KIMT 230154Z AUTO 10007KT 1 3/4SM -SN BR BKN008 OVC025 00/M01 A2980 RMK AO2 SLP107 P0000 T00001011
Loading
Personal Weather Stations






























Interactive Weather Map New forecast layout! Learn more

10-Day Weather Forecast

Advertisements
Track Severe Weather on mobile